createdAt,value
2019-04-10T00:00:35.668Z,22.17
2019-04-10T00:03:04.169Z,20.57
2019-04-10T00:05:32.497Z,22.22
2019-04-10T00:08:01.814Z,21.65
2019-04-10T00:10:30.324Z,24.35
2019-04-10T00:12:58.717Z,21.87
2019-04-10T00:15:27.086Z,24.67
2019-04-10T00:17:55.669Z,20.90
2019-04-10T00:20:24.580Z,23.50
2019-04-10T00:22:52.992Z,21.15
2019-04-10T00:25:21.352Z,20.75
2019-04-10T00:27:50.695Z,21.93
2019-04-10T00:30:19.207Z,21.82
2019-04-10T00:32:48.101Z,24.87
2019-04-10T00:35:16.544Z,22.15
2019-04-10T00:37:44.992Z,23.67
2019-04-10T00:40:13.304Z,22.73
2019-04-10T00:42:41.671Z,26.82
2019-04-10T00:45:11.005Z,22.22
2019-04-10T00:47:39.601Z,20.82
2019-04-10T00:50:08.511Z,21.82
2019-04-10T00:52:37.118Z,23.00
2019-04-10T00:55:05.775Z,23.02
2019-04-10T00:57:34.107Z,24.15
2019-04-10T01:00:02.487Z,22.50
2019-04-10T01:02:30.860Z,23.32
2019-04-10T01:04:59.226Z,22.62
2019-04-10T01:07:37.604Z,23.38
2019-04-10T01:09:57.644Z,23.32
2019-04-10T01:12:25.972Z,22.85
2019-04-10T01:14:54.343Z,22.58
2019-04-10T01:17:22.701Z,27.77
2019-04-10T01:19:52.273Z,24.90
2019-04-10T01:22:21.255Z,22.65
2019-04-10T01:24:50.209Z,22.82
2019-04-10T01:27:18.764Z,25.32
2019-04-10T01:29:47.121Z,22.70
2019-04-10T01:32:15.502Z,24.77
2019-04-10T01:34:43.842Z,23.83
2019-04-10T01:37:12.421Z,23.67
2019-04-10T01:39:40.795Z,24.35
2019-04-10T01:42:09.245Z,29.23
2019-04-10T01:44:38.491Z,25.52
2019-04-10T01:47:06.995Z,25.62
2019-04-10T01:49:35.369Z,25.02
2019-04-10T01:52:04.714Z,26.42
2019-04-10T01:54:33.358Z,23.30
2019-04-10T01:57:01.725Z,23.98
2019-04-10T01:59:32.107Z,24.55
2019-04-10T02:02:05.204Z,21.95
2019-04-10T02:04:33.785Z,24.57
2019-04-10T02:07:02.226Z,24.95
2019-04-10T02:09:31.667Z,26.37
2019-04-10T02:12:00.180Z,25.57
2019-04-10T02:14:28.569Z,27.13
2019-04-10T02:16:57.079Z,28.47
2019-04-10T02:19:26.102Z,24.70
2019-04-10T02:21:54.516Z,30.95
2019-04-10T02:24:23.010Z,23.85
2019-04-10T02:26:51.965Z,25.45
2019-04-10T02:29:20.424Z,25.68
2019-04-10T02:31:50.681Z,24.30
2019-04-10T02:34:19.442Z,27.65
2019-04-10T02:36:50.673Z,23.62
2019-04-10T02:39:27.448Z,27.70
2019-04-10T02:41:50.002Z,29.05
2019-04-10T02:44:18.749Z,22.40
2019-04-10T02:46:47.571Z,21.95
2019-04-10T02:49:16.499Z,24.65
2019-04-10T02:51:45.380Z,25.00
2019-04-10T02:54:15.365Z,22.85
2019-04-10T02:56:45.587Z,25.68
2019-04-10T02:59:15.456Z,24.72
2019-04-10T03:01:44.191Z,24.67
2019-04-10T03:04:13.354Z,24.35
2019-04-10T03:06:42.838Z,24.07
2019-04-10T03:09:30.543Z,24.65
2019-04-10T03:11:42.052Z,22.13
2019-04-10T03:14:12.357Z,22.20
2019-04-10T03:16:41.769Z,21.80
2019-04-10T03:19:10.333Z,24.40
2019-04-10T03:21:39.531Z,26.05
2019-04-10T03:24:08.063Z,25.27
2019-04-10T03:26:37.367Z,23.55
2019-04-10T03:29:05.795Z,23.42
2019-04-10T03:31:34.551Z,27.73
2019-04-10T03:34:22.657Z,24.80
2019-04-10T03:36:51.850Z,23.50
2019-04-10T03:39:20.156Z,25.17
2019-04-10T03:41:48.544Z,23.62
2019-04-10T03:44:16.896Z,24.77
2019-04-10T03:46:45.269Z,27.48
2019-04-10T03:49:13.750Z,24.00
2019-04-10T03:51:43.021Z,22.95
2019-04-10T03:54:11.586Z,23.02
2019-04-10T03:56:40.161Z,24.55
2019-04-10T03:59:08.719Z,26.37
2019-04-10T04:01:37.082Z,25.62
2019-04-10T04:04:05.459Z,27.95
2019-04-10T04:06:33.828Z,24.95
2019-04-10T04:09:08.957Z,24.77
2019-04-10T04:11:32.224Z,26.12
2019-04-10T04:14:00.611Z,31.07
2019-04-10T04:16:29.023Z,31.85
2019-04-10T04:18:57.651Z,29.25
2019-04-10T04:21:26.231Z,29.92
2019-04-10T04:23:55.238Z,28.10
2019-04-10T04:26:23.663Z,35.68
2019-04-10T04:28:52.028Z,32.23
2019-04-10T04:31:20.396Z,31.20
2019-04-10T04:33:48.986Z,29.37
2019-04-10T04:36:18.263Z,29.60
2019-04-10T04:38:46.821Z,32.17
2019-04-10T04:41:15.434Z,33.92
2019-04-10T04:43:45.990Z,32.10
2019-04-10T04:46:14.131Z,34.10
2019-04-10T04:48:43.330Z,31.07
2019-04-10T04:51:11.909Z,38.00
2019-04-10T04:53:40.287Z,33.95
2019-04-10T04:56:09.491Z,34.70
2019-04-10T04:58:38.190Z,34.85
2019-04-10T05:01:06.622Z,34.10
2019-04-10T05:03:35.410Z,35.68
2019-04-10T05:06:04.069Z,36.17
2019-04-10T05:08:32.436Z,36.85
2019-04-10T05:11:00.796Z,34.27
2019-04-10T05:13:29.175Z,36.40
2019-04-10T05:15:57.613Z,36.85
2019-04-10T05:18:25.915Z,35.23
2019-04-10T05:20:54.733Z,39.55
2019-04-10T05:23:24.367Z,37.05
2019-04-10T05:25:53.861Z,34.83
2019-04-10T05:28:22.432Z,35.63
2019-04-10T05:30:50.793Z,33.23
2019-04-10T05:33:19.153Z,36.15
2019-04-10T05:35:48.702Z,38.60
2019-04-10T05:38:17.308Z,42.58
2019-04-10T05:40:45.696Z,36.45
2019-04-10T05:43:14.088Z,38.92
2019-04-10T05:45:42.466Z,36.45
2019-04-10T05:48:11.086Z,37.58
2019-04-10T05:50:39.876Z,38.60
2019-04-10T05:53:08.385Z,43.83
2019-04-10T05:55:36.773Z,36.30
2019-04-10T05:58:05.129Z,36.38
2019-04-10T06:00:34.528Z,38.08
2019-04-10T06:03:03.934Z,38.48
2019-04-10T06:05:32.450Z,39.30
2019-04-10T06:08:01.353Z,37.75
2019-04-10T06:10:30.150Z,41.98
2019-04-10T06:12:58.697Z,43.30
2019-04-10T06:15:27.056Z,42.40
2019-04-10T06:17:56.519Z,44.03
2019-04-10T06:20:25.143Z,43.48
2019-04-10T06:22:54.650Z,41.13
2019-04-10T06:25:24.698Z,42.67
2019-04-10T06:27:53.615Z,41.92
2019-04-10T06:30:21.992Z,45.35
2019-04-10T06:32:51.536Z,42.70
2019-04-10T06:35:20.157Z,49.45
2019-04-10T06:37:48.524Z,43.30
2019-04-10T06:40:21.323Z,43.33
2019-04-10T06:42:51.609Z,42.27
2019-04-10T06:45:17.773Z,42.15
2019-04-10T06:47:46.622Z,46.45
2019-04-10T06:50:15.155Z,40.65
2019-04-10T06:52:43.522Z,36.63
2019-04-10T06:55:11.935Z,42.67
2019-04-10T06:57:50.983Z,38.60
2019-04-10T07:00:13.701Z,45.90
2019-04-10T07:02:42.272Z,36.88
2019-04-10T07:05:12.132Z,33.98
2019-04-10T07:07:50.966Z,41.28
2019-04-10T07:10:22.401Z,43.75
2019-04-10T07:12:41.713Z,48.13
2019-04-10T07:15:10.633Z,47.85
2019-04-10T07:17:41.026Z,48.98
2019-04-10T07:20:09.540Z,61.20
2019-04-10T07:22:44.666Z,48.92
2019-04-10T07:25:10.305Z,48.23
2019-04-10T07:27:39.997Z,51.23
2019-04-10T07:30:08.205Z,47.35
2019-04-10T07:32:40.893Z,52.38
2019-04-10T07:35:06.773Z,54.88
2019-04-10T07:37:36.200Z,50.60
2019-04-10T07:40:07.828Z,92.33
2019-04-10T07:42:39.651Z,45.45
2019-04-10T07:45:06.849Z,41.42
2019-04-10T07:47:35.978Z,41.45
2019-04-10T07:50:08.648Z,40.73
2019-04-10T07:52:37.307Z,40.58
2019-04-10T07:55:06.605Z,38.38
2019-04-10T07:57:36.288Z,39.73
2019-04-10T08:00:06.729Z,32.73
2019-04-10T08:02:35.017Z,37.63
2019-04-10T08:05:04.529Z,33.78
2019-04-10T08:07:35.738Z,32.48
2019-04-10T08:10:03.636Z,35.60
2019-04-10T08:12:39.543Z,33.83
2019-04-10T08:15:02.845Z,34.08
2019-04-10T08:17:32.418Z,36.30
2019-04-10T08:20:01.622Z,34.65
2019-04-10T08:22:30.736Z,35.17
2019-04-10T08:25:00.169Z,36.40
2019-04-10T08:27:29.804Z,34.95
2019-04-10T08:29:59.068Z,32.58
2019-04-10T08:32:27.607Z,35.28
2019-04-10T08:34:56.108Z,33.78
2019-04-10T08:37:24.681Z,33.95
2019-04-10T08:39:53.031Z,32.35
2019-04-10T08:42:22.383Z,38.40
2019-04-10T08:44:52.075Z,34.43
2019-04-10T08:47:20.548Z,34.15
2019-04-10T08:49:49.447Z,35.10
2019-04-10T08:52:17.970Z,39.98
2019-04-10T08:54:46.315Z,36.23
2019-04-10T08:57:14.695Z,33.63
2019-04-10T08:59:44.537Z,34.83
2019-04-10T09:02:13.683Z,41.08
2019-04-10T09:04:42.247Z,32.20
2019-04-10T09:07:11.625Z,35.50
2019-04-10T09:09:40.183Z,32.95
2019-04-10T09:12:09.378Z,34.65
2019-04-10T09:14:38.159Z,36.53
2019-04-10T09:17:06.975Z,35.98
2019-04-10T09:19:36.228Z,30.85
2019-04-10T09:22:05.887Z,34.33
2019-04-10T09:24:34.327Z,33.70
2019-04-10T09:27:02.692Z,39.60
2019-04-10T09:29:31.951Z,42.15
2019-04-10T09:32:00.544Z,35.92
2019-04-10T09:34:28.904Z,37.03
2019-04-10T09:36:57.730Z,32.45
2019-04-10T09:39:27.452Z,38.80
2019-04-10T09:41:56.475Z,30.32
2019-04-10T09:44:25.672Z,32.78
2019-04-10T09:46:54.160Z,31.45
2019-04-10T09:49:32.619Z,31.33
2019-04-10T09:51:52.546Z,24.18
2019-04-10T09:54:21.815Z,25.75
2019-04-10T09:56:50.618Z,51.88
2019-04-10T09:59:30.526Z,24.52
2019-04-10T10:01:49.197Z,31.27
2019-04-10T10:04:17.568Z,148.02
2019-04-10T10:06:45.947Z,52.58
2019-04-10T10:09:14.791Z,26.27
2019-04-10T10:11:43.297Z,26.35
2019-04-10T10:14:12.572Z,24.95
2019-04-10T10:16:42.136Z,25.02
2019-04-10T10:19:10.696Z,21.50
2019-04-10T10:21:39.104Z,22.67
2019-04-10T10:24:08.593Z,19.12
2019-04-10T10:26:37.144Z,24.77
2019-04-10T10:29:05.524Z,29.75
2019-04-10T10:31:33.889Z,18.95
2019-04-10T10:34:02.279Z,22.95
2019-04-10T10:36:39.301Z,20.50
2019-04-10T10:39:08.806Z,18.75
2019-04-10T10:41:31.880Z,25.17
2019-04-10T10:44:00.626Z,21.50
2019-04-10T10:46:29.321Z,18.98
2019-04-10T10:48:57.967Z,19.60
2019-04-10T10:51:26.807Z,18.67
2019-04-10T10:53:55.340Z,19.45
2019-04-10T10:56:24.450Z,21.12
2019-04-10T10:58:53.180Z,21.45
2019-04-10T11:01:22.148Z,18.73
2019-04-10T11:03:50.799Z,18.10
2019-04-10T11:06:19.367Z,20.37
2019-04-10T11:08:47.809Z,19.87
2019-04-10T11:11:17.077Z,16.85
2019-04-10T11:13:46.916Z,20.37
2019-04-10T11:16:16.823Z,18.50
2019-04-10T11:18:46.842Z,18.10
2019-04-10T11:21:16.637Z,18.87
2019-04-10T11:23:45.363Z,19.50
2019-04-10T11:26:18.896Z,24.30
2019-04-10T11:28:43.812Z,33.58
2019-04-10T11:31:13.535Z,18.48
2019-04-10T11:33:43.872Z,29.10
2019-04-10T11:36:12.516Z,27.30
2019-04-10T11:38:42.872Z,18.15
2019-04-10T11:41:12.472Z,32.00
2019-04-10T11:43:41.624Z,21.12
2019-04-10T11:46:10.497Z,21.17
2019-04-10T11:48:44.688Z,17.35
2019-04-10T11:51:13.253Z,15.65
2019-04-10T11:53:44.126Z,15.15
2019-04-10T11:56:11.592Z,16.57
2019-04-10T11:58:50.713Z,16.70
2019-04-10T12:01:10.543Z,15.48
2019-04-10T12:03:45.142Z,16.02
2019-04-10T12:06:11.960Z,15.18
2019-04-10T12:09:03.671Z,127.80
2019-04-10T12:11:14.549Z,34.15
2019-04-10T12:13:39.272Z,41.48
2019-04-10T12:16:07.639Z,13.78
2019-04-10T12:18:35.991Z,9.10
2019-04-10T12:21:05.206Z,9.33
2019-04-10T12:23:34.658Z,10.58
2019-04-10T12:26:03.356Z,11.15
2019-04-10T12:28:31.892Z,10.80
2019-04-10T12:31:00.200Z,30.15
2019-04-10T12:33:29.590Z,17.25
2019-04-10T12:35:58.284Z,19.10
2019-04-10T12:38:27.723Z,11.63
2019-04-10T12:40:57.246Z,9.48
2019-04-10T12:43:25.914Z,9.10
2019-04-10T12:45:54.809Z,9.23
2019-04-10T12:48:23.168Z,11.40
2019-04-10T12:50:51.542Z,10.35
2019-04-10T12:53:19.925Z,8.93
2019-04-10T12:55:49.309Z,9.00
2019-04-10T12:58:19.255Z,8.65
2019-04-10T13:00:48.149Z,9.35
2019-04-10T13:03:16.815Z,9.63
2019-04-10T13:05:45.305Z,10.53
2019-04-10T13:08:21.290Z,10.35
2019-04-10T13:10:44.218Z,11.12
2019-04-10T13:13:13.556Z,11.18
2019-04-10T13:15:42.123Z,12.07
2019-04-10T13:18:10.504Z,11.33
2019-04-10T13:20:39.889Z,10.55
2019-04-10T13:23:08.685Z,10.68
2019-04-10T13:25:37.103Z,10.60
2019-04-10T13:28:05.570Z,11.20
2019-04-10T13:30:44.750Z,11.38
2019-04-10T13:33:04.609Z,11.03
2019-04-10T13:35:33.091Z,11.35
2019-04-10T13:38:01.451Z,13.22
2019-04-10T13:40:29.930Z,14.63
2019-04-10T13:42:58.295Z,13.68
2019-04-10T13:45:27.067Z,13.75
2019-04-10T13:47:56.590Z,14.35
2019-04-10T13:50:26.374Z,14.47
2019-04-10T13:52:55.575Z,14.40
2019-04-10T13:55:24.280Z,14.05
2019-04-10T13:57:53.016Z,14.78
2019-04-10T14:00:25.917Z,18.17
2019-04-10T14:02:54.520Z,16.20
2019-04-10T14:05:24.015Z,14.83
2019-04-10T14:07:53.440Z,14.60
2019-04-10T14:10:22.855Z,18.40
2019-04-10T14:12:51.434Z,15.05
2019-04-10T14:15:20.193Z,16.30
2019-04-10T14:17:48.683Z,15.45
2019-04-10T14:20:17.426Z,15.83
2019-04-10T14:23:02.487Z,20.88
2019-04-10T14:25:32.499Z,13.40
2019-04-10T14:28:00.880Z,14.75
2019-04-10T14:30:37.682Z,18.17
2019-04-10T14:33:07.160Z,15.40
2019-04-10T14:35:35.740Z,14.13
2019-04-10T14:38:04.794Z,13.20
2019-04-10T14:40:33.928Z,29.32
2019-04-10T14:43:03.224Z,28.27
2019-04-10T14:45:31.736Z,12.43
2019-04-10T14:48:00.171Z,30.15
2019-04-10T14:50:29.466Z,15.05
2019-04-10T14:52:57.905Z,10.82
2019-04-10T14:55:27.172Z,12.88
2019-04-10T14:57:55.747Z,9.83
2019-04-10T15:00:31.421Z,9.50
2019-04-10T15:03:00.155Z,11.22
2019-04-10T15:05:28.560Z,10.95
2019-04-10T15:07:57.522Z,13.72
2019-04-10T15:10:25.882Z,13.88
2019-04-10T15:12:55.475Z,15.93
2019-04-10T15:15:24.264Z,12.82
2019-04-10T15:17:52.631Z,12.45
2019-04-10T15:20:21.032Z,13.28
2019-04-10T15:22:49.804Z,35.35
2019-04-10T15:25:19.225Z,77.45
2019-04-10T15:27:48.048Z,13.35
2019-04-10T15:30:16.436Z,13.08
2019-04-10T15:32:45.397Z,12.58
2019-04-10T15:35:13.980Z,10.40
2019-04-10T15:37:42.355Z,10.55
2019-04-10T15:40:18.489Z,10.25
2019-04-10T15:42:40.748Z,12.28
2019-04-10T15:45:09.107Z,11.80
2019-04-10T15:47:37.521Z,11.05
2019-04-10T15:50:07.438Z,10.05
2019-04-10T15:52:37.543Z,9.73
2019-04-10T15:55:06.128Z,10.40
2019-04-10T15:57:47.015Z,10.05
2019-04-10T16:00:08.786Z,9.38
2019-04-10T16:02:38.369Z,9.93
2019-04-10T16:05:07.226Z,10.82
2019-04-10T16:07:36.292Z,12.63
2019-04-10T16:10:09.657Z,13.83
2019-04-10T16:12:38.016Z,18.92
2019-04-10T16:15:06.470Z,17.05
2019-04-10T16:17:42.461Z,15.95
2019-04-10T16:20:25.638Z,13.20
2019-04-10T16:22:56.731Z,14.73
2019-04-10T16:25:30.879Z,15.32
2019-04-10T16:28:00.627Z,16.10
2019-04-10T16:30:30.595Z,17.00
2019-04-10T16:32:59.035Z,16.82
2019-04-10T16:35:27.463Z,22.58
2019-04-10T16:37:56.006Z,17.60
2019-04-10T16:40:24.468Z,13.95
2019-04-10T16:42:53.024Z,13.30
2019-04-10T16:45:22.327Z,13.45
2019-04-10T16:47:50.881Z,15.65
2019-04-10T16:50:19.562Z,15.55
2019-04-10T16:52:48.044Z,13.68
2019-04-10T16:55:16.404Z,11.43
2019-04-10T16:57:45.281Z,12.53
2019-04-10T17:00:16.706Z,11.73
2019-04-10T17:02:44.628Z,13.20
2019-04-10T17:05:12.987Z,13.58
2019-04-10T17:07:41.365Z,12.85
2019-04-10T17:10:16.695Z,14.38
2019-04-10T17:12:40.723Z,13.53
2019-04-10T17:15:10.318Z,13.53
2019-04-10T17:17:38.882Z,14.70
2019-04-10T17:20:08.581Z,19.32
2019-04-10T17:22:43.522Z,12.68
2019-04-10T17:25:07.326Z,11.70
2019-04-10T17:27:35.704Z,11.97
2019-04-10T17:30:08.026Z,11.68
2019-04-10T17:32:36.420Z,11.43
2019-04-10T17:35:07.749Z,11.63
2019-04-10T17:37:38.092Z,13.10
2019-04-10T17:40:09.308Z,11.57
2019-04-10T17:42:38.160Z,12.15
2019-04-10T17:45:08.226Z,12.07
2019-04-10T17:47:36.789Z,13.53
2019-04-10T17:50:07.746Z,11.55
2019-04-10T17:52:37.928Z,13.05
2019-04-10T17:55:07.417Z,13.15
2019-04-10T17:57:40.204Z,15.15
2019-04-10T18:00:13.129Z,15.10
2019-04-10T18:02:41.608Z,12.68
2019-04-10T18:05:10.597Z,17.45
2019-04-10T18:07:39.145Z,14.28
2019-04-10T18:10:08.473Z,13.72
2019-04-10T18:12:36.891Z,15.45
2019-04-10T18:15:06.290Z,11.80
2019-04-10T18:17:35.436Z,12.98
2019-04-10T18:20:04.968Z,13.20
2019-04-10T18:22:34.316Z,11.48
2019-04-10T18:25:03.470Z,12.85
2019-04-10T18:27:32.322Z,13.05
2019-04-10T18:30:00.811Z,12.95
2019-04-10T18:32:29.667Z,14.70
2019-04-10T18:34:58.348Z,15.23
2019-04-10T18:37:28.550Z,14.75
2019-04-10T18:39:57.081Z,14.40
2019-04-10T18:42:26.617Z,11.20
2019-04-10T18:44:55.463Z,10.95
2019-04-10T18:47:24.970Z,10.43
2019-04-10T18:49:54.023Z,9.08
2019-04-10T18:52:23.368Z,14.30
2019-04-10T18:54:52.062Z,13.05
2019-04-10T18:57:20.421Z,12.13
2019-04-10T18:59:51.134Z,10.58
2019-04-10T19:02:37.581Z,11.25
2019-04-10T19:05:17.340Z,8.03
2019-04-10T19:07:46.201Z,7.85
2019-04-10T19:10:14.779Z,8.13
2019-04-10T19:12:43.237Z,11.35
2019-04-10T19:15:12.677Z,9.78
2019-04-10T19:17:41.958Z,9.38
2019-04-10T19:20:11.086Z,8.03
2019-04-10T19:22:40.137Z,7.85
2019-04-10T19:25:08.672Z,9.55
2019-04-10T19:27:37.118Z,9.00
2019-04-10T19:30:10.749Z,8.58
2019-04-10T19:32:39.416Z,7.85
2019-04-10T19:35:07.768Z,9.08
2019-04-10T19:37:36.753Z,8.90
2019-04-10T19:40:09.395Z,7.62
2019-04-10T19:45:07.846Z,8.58
2019-04-10T19:47:36.730Z,7.15
2019-04-10T19:50:05.574Z,7.22
2019-04-10T19:52:33.943Z,8.53
2019-04-10T19:55:03.292Z,7.58
2019-04-10T19:57:31.876Z,8.38
2019-04-10T20:00:00.534Z,7.87
2019-04-10T20:02:28.979Z,12.20
2019-04-10T20:04:57.347Z,62.53
2019-04-10T20:07:26.999Z,9.15
2019-04-10T20:09:55.500Z,8.68
2019-04-10T20:12:24.472Z,10.05
2019-04-10T20:14:53.332Z,8.60
2019-04-10T20:17:22.039Z,8.95
2019-04-10T20:19:52.617Z,9.33
2019-04-10T20:22:20.910Z,7.67
2019-04-10T20:24:50.809Z,7.90
2019-04-10T20:27:20.228Z,8.58
2019-04-10T20:29:48.601Z,9.75
2019-04-10T20:32:17.669Z,7.92
2019-04-10T20:34:46.217Z,8.10
2019-04-10T20:37:14.586Z,7.80
2019-04-10T20:39:42.939Z,9.25
2019-04-10T20:42:11.304Z,10.20
2019-04-10T20:44:40.641Z,9.13
2019-04-10T20:47:09.255Z,11.70
2019-04-10T20:49:38.469Z,9.75
2019-04-10T20:52:08.360Z,9.45
2019-04-10T20:54:37.134Z,9.13
2019-04-10T20:57:06.506Z,7.90
2019-04-10T20:59:35.643Z,10.45
2019-04-10T21:02:04.253Z,11.10
2019-04-10T21:04:33.755Z,11.18
2019-04-10T21:07:02.925Z,9.13
2019-04-10T21:09:32.095Z,8.95
2019-04-10T21:12:06.747Z,10.08
2019-04-10T21:14:31.661Z,9.85
2019-04-10T21:17:00.461Z,9.75
2019-04-10T21:19:29.049Z,10.20
2019-04-10T21:21:57.641Z,10.68
2019-04-10T21:24:26.022Z,10.28
2019-04-10T21:26:54.852Z,10.10
2019-04-10T21:29:42.091Z,10.48
2019-04-10T21:32:12.963Z,10.72
2019-04-10T21:34:42.737Z,10.38
2019-04-10T21:37:11.258Z,12.85
2019-04-10T21:39:39.616Z,11.73
2019-04-10T21:42:15.825Z,10.30
2019-04-10T21:44:37.997Z,13.70
2019-04-10T21:47:06.361Z,11.40
2019-04-10T21:49:35.804Z,12.25
2019-04-10T21:52:05.586Z,12.75
2019-04-10T21:54:34.706Z,13.35
2019-04-10T21:57:03.171Z,12.40
2019-04-10T21:59:31.528Z,15.23
2019-04-10T22:01:59.969Z,14.05
2019-04-10T22:04:28.413Z,15.03
2019-04-10T22:07:01.447Z,14.87
2019-04-10T22:09:34.931Z,15.58
2019-04-10T22:12:05.787Z,13.83
2019-04-10T22:14:34.179Z,17.07
2019-04-10T22:17:03.340Z,16.97
2019-04-10T22:19:31.692Z,15.48
2019-04-10T22:22:00.449Z,17.05
2019-04-10T22:24:29.864Z,16.00
2019-04-10T22:26:58.644Z,16.57
2019-04-10T22:29:28.198Z,14.40
2019-04-10T22:31:57.734Z,17.67
2019-04-10T22:34:27.616Z,16.20
2019-04-10T22:36:56.233Z,17.40
2019-04-10T22:39:25.355Z,16.95
2019-04-10T22:41:54.783Z,15.72
2019-04-10T22:44:33.825Z,15.90
2019-04-10T22:46:54.395Z,16.82
2019-04-10T22:49:22.884Z,17.23
2019-04-10T22:51:51.810Z,16.70
2019-04-10T22:54:20.323Z,17.20
2019-04-10T22:56:49.902Z,16.82
2019-04-10T22:59:18.490Z,15.68
2019-04-10T23:01:59.628Z,16.52
2019-04-10T23:04:17.779Z,17.52
2019-04-10T23:06:47.151Z,19.92
2019-04-10T23:09:15.889Z,20.43
2019-04-10T23:11:46.492Z,22.60
2019-04-10T23:14:14.427Z,19.02
2019-04-10T23:16:42.772Z,21.73
2019-04-10T23:19:11.981Z,22.93
2019-04-10T23:21:40.854Z,19.12
2019-04-10T23:24:09.557Z,22.17
2019-04-10T23:26:38.075Z,18.77
2019-04-10T23:29:06.440Z,19.60
2019-04-10T23:31:34.815Z,18.90
2019-04-10T23:34:04.113Z,20.00
2019-04-10T23:36:32.659Z,23.62
2019-04-10T23:39:01.024Z,18.90
2019-04-10T23:41:29.615Z,21.50
2019-04-10T23:43:58.052Z,19.77
2019-04-10T23:46:26.456Z,20.40
2019-04-10T23:48:55.161Z,24.47
2019-04-10T23:51:23.759Z,20.65
2019-04-10T23:53:53.033Z,21.85
2019-04-10T23:56:21.838Z,17.40
2019-04-10T23:58:50.753Z,17.60
